Time;durP1;ratioP1;P1;durP2;ratioP2;P2;SDS_P1;SDS_P2;PMS_P1;PMS_P2;Temp;Humidity;BMP_temperature;BMP_pressure;BME280_temperature;BME280_humidity;BME280_pressure;Samples;Min_cycle;Max_cycle;Signal;HPM_P1;HPM_P2
2022/05/01 12:45:05;;;;;;;4.15;1.85;;;;;;;19.34;38.70;92476.03;5157437;27;20137;-61
2022/05/01 12:47:36;;;;;;;3.75;1.80;;;;;;;19.47;38.05;92463.44;5116755;27;20035;-61
2022/05/01 12:51:46;;;;;;;4.82;2.45;;;;;;;18.83;35.59;92445.88;5128698;27;20114;-79
2022/05/01 12:54:18;;;;;;;5.90;2.70;;;;;;;18.16;36.97;92458.72;5081003;28;20032;-78
2022/05/01 12:56:47;;;;;;;5.43;2.80;;;;;;;17.74;37.53;92457.03;5103761;28;20062;-78
2022/05/01 12:59:26;;;;;;;4.82;1.90;;;;;;;17.48;37.66;92462.66;5098082;28;20039;-78
2022/05/01 13:01:54;;;;;;;3.75;2.20;;;;;;;17.29;37.61;92449.94;5081088;28;20036;-78
2022/05/01 13:04:25;;;;;;;4.43;2.50;;;;;;;16.82;38.70;92440.47;5095852;28;20434;-79
2022/05/01 13:06:51;;;;;;;3.70;1.90;;;;;;;17.13;38.67;92444.50;5103966;28;20060;-79
2022/05/01 13:09:16;;;;;;;4.50;2.90;;;;;;;17.03;38.77;92439.66;5093692;28;20028;-79
2022/05/01 13:12:06;;;;;;;4.95;2.35;;;;;;;16.97;38.13;92446.25;5073498;28;20328;-78
2022/05/01 13:14:33;;;;;;;3.55;2.00;;;;;;;16.98;38.94;92439.88;5106426;28;20043;-78
2022/05/01 13:17:15;;;;;;;4.63;2.60;;;;;;;17.00;39.66;92432.34;5081398;28;20038;-78
2022/05/01 13:19:43;;;;;;;3.75;2.25;;;;;;;17.22;39.37;92441.78;5079885;28;20093;-77
2022/05/01 13:22:10;;;;;;;5.65;2.50;;;;;;;17.48;38.30;92428.28;5088198;28;20039;-77
2022/05/01 13:24:39;;;;;;;6.32;2.33;;;;;;;17.42;38.64;92429.56;5081223;28;20540;-77
2022/05/01 13:27:10;;;;;;;4.55;2.60;;;;;;;17.45;38.23;92428.91;5089052;28;20047;-77
2022/05/01 13:29:39;;;;;;;6.13;2.90;;;;;;;17.16;37.48;92422.72;5088887;28;20036;-77
2022/05/01 13:32:07;;;;;;;7.70;5.13;;;;;;;17.28;37.04;92425.38;5093674;28;20039;-75
2022/05/01 13:34:37;;;;;;;4.95;2.80;;;;;;;16.93;37.44;92417.06;5091991;28;20081;-76
2022/05/01 13:37:08;;;;;;;5.70;3.25;;;;;;;16.64;38.94;92418.69;5091309;28;20374;-76
2022/05/01 13:45:03;;;;;;;5.85;3.33;;;;;;;16.82;38.62;92413.28;5094189;28;20455;-77
2022/05/01 13:47:29;;;;;;;6.78;2.25;;;;;;;17.03;37.42;92415.84;5085223;28;20412;-77
2022/05/01 13:49:56;;;;;;;3.15;1.85;;;;;;;17.14;36.28;92419.63;5090457;28;20043;-77
2022/05/01 13:52:22;;;;;;;7.18;4.25;;;;;;;17.42;36.92;92409.19;5096941;28;20055;-78
2022/05/01 13:54:48;;;;;;;5.78;2.17;;;;;;;17.49;36.38;92398.03;5084799;28;20406;-78
2022/05/01 13:57:14;;;;;;;4.28;2.08;;;;;;;17.30;35.32;92398.59;5087006;28;20489;-78
2022/05/01 13:59:40;;;;;;;4.00;2.20;;;;;;;17.27;34.50;92402.69;5090114;28;20025;-77
2022/05/01 14:02:08;;;;;;;5.18;2.40;;;;;;;17.48;36.11;92397.28;5074371;28;20051;-78
2022/05/01 14:04:34;;;;;;;4.75;2.30;;;;;;;17.64;34.29;92388.69;5052933;28;20028;-77
2022/05/01 14:07:00;;;;;;;4.85;2.25;;;;;;;17.72;35.52;92387.81;5064593;28;20540;-77
2022/05/01 14:09:26;;;;;;;4.38;2.20;;;;;;;17.88;35.58;92382.63;5055628;28;20039;-78
2022/05/01 14:11:56;;;;;;;4.10;1.88;;;;;;;17.68;34.39;92390.34;5084570;28;20035;-77
2022/05/01 14:14:23;;;;;;;6.20;2.85;;;;;;;17.35;35.05;92379.09;5088134;28;20035;-77
2022/05/01 14:16:49;;;;;;;5.28;2.58;;;;;;;17.03;35.84;92376.19;5077690;28;20044;-76
2022/05/01 14:19:30;;;;;;;4.20;2.17;;;;;;;16.74;36.04;92369.94;5066010;28;20097;-77
2022/05/01 14:21:56;;;;;;;5.65;2.55;;;;;;;16.98;35.55;92374.53;5050033;28;20042;-77
2022/05/01 14:24:22;;;;;;;5.50;2.42;;;;;;;17.12;36.78;92376.88;5086772;28;20472;-77
2022/05/01 14:26:48;;;;;;;4.30;2.38;;;;;;;17.13;36.04;92372.34;5063165;28;20031;-77
2022/05/01 14:29:14;;;;;;;3.83;1.98;;;;;;;17.26;36.49;92366.72;5079167;28;20033;-77
2022/05/01 14:31:46;;;;;;;4.55;2.75;;;;;;;17.36;35.86;92368.19;5060515;28;20050;-79
2022/05/01 14:34:32;;;;;;;5.72;2.70;;;;;;;17.51;34.57;92361.44;5094094;28;20023;-78
2022/05/01 14:37:00;;;;;;;4.85;2.30;;;;;;;17.30;35.00;92363.44;5076299;28;20125;-78
2022/05/01 14:39:28;;;;;;;4.68;2.35;;;;;;;16.94;35.71;92368.34;5079350;28;20599;-79
2022/05/01 14:42:05;;;;;;;4.35;2.60;;;;;;;17.15;37.02;92362.97;5083925;28;20017;-78
2022/05/01 14:44:31;;;;;;;4.22;2.10;;;;;;;17.39;37.58;92356.16;5058704;28;20036;-79
2022/05/01 14:47:00;;;;;;;5.68;2.60;;;;;;;17.43;36.71;92355.16;5067000;28;20450;-77
2022/05/01 14:49:33;;;;;;;7.53;2.55;;;;;;;17.19;37.18;92355.94;5091249;28;20647;-78
2022/05/01 14:52:01;;;;;;;4.80;2.67;;;;;;;17.23;37.18;92366.63;5094823;28;20422;-79
2022/05/01 14:54:32;;;;;;;3.95;2.22;;;;;;;16.96;38.48;92360.88;5076264;28;20028;-79
2022/05/01 14:57:02;;;;;;;4.57;2.65;;;;;;;16.70;38.63;92363.75;5075172;28;20560;-78
2022/05/01 15:07:54;;;;;;;5.15;2.38;;;;;;;17.14;39.29;92353.50;5083698;28;20730;-78
2022/05/01 15:10:21;;;;;;;7.13;2.53;;;;;;;17.36;39.19;92351.53;5061834;28;20073;-78
2022/05/01 15:12:52;;;;;;;5.20;2.85;;;;;;;17.03;38.80;92344.47;5080782;28;20123;-78
2022/05/01 15:15:19;;;;;;;7.72;2.80;;;;;;;16.79;39.69;92348.59;5059387;28;20037;-78
2022/05/01 15:17:51;;;;;;;5.78;2.63;;;;;;;16.74;38.90;92348.03;5079031;28;20032;-78
2022/05/01 15:20:24;;;;;;;5.18;2.45;;;;;;;16.34;38.71;92353.84;5045541;28;20028;-78
2022/05/01 15:23:18;;;;;;;4.88;2.50;;;;;;;16.17;40.19;92352.91;5048284;28;20105;-78
2022/05/01 15:25:57;;;;;;;6.93;3.17;;;;;;;15.96;41.35;92354.75;5086240;28;20118;-78
2022/05/01 15:28:23;;;;;;;8.40;3.50;;;;;;;15.88;41.44;92356.38;5092407;28;20030;-77
2022/05/01 15:30:52;;;;;;;5.45;2.88;;;;;;;15.73;41.94;92354.31;5059187;28;20040;-78
2022/05/01 15:36:33;;;;;;;8.25;2.83;;;;;;;15.72;42.08;92350.13;5072887;28;20040;-77
2022/05/01 15:39:05;;;;;;;4.40;2.53;;;;;;;15.86;41.61;92355.91;5075508;28;20047;-78
2022/05/01 15:41:33;;;;;;;5.03;3.00;;;;;;;15.85;42.11;92354.38;5084527;28;20051;-78
2022/05/01 15:44:07;;;;;;;6.00;3.00;;;;;;;15.61;42.07;92350.47;5061515;28;20115;-78
2022/05/01 15:46:44;;;;;;;4.78;2.40;;;;;;;15.71;41.71;92353.84;5060479;28;20040;-78
2022/05/01 15:54:46;;;;;;;6.80;2.90;;;;;;;16.08;42.35;92354.06;5086991;28;20117;-78
2022/05/01 15:57:13;;;;;;;7.47;3.50;;;;;;;16.08;42.50;92354.06;5079514;28;20036;-78
2022/05/01 15:59:40;;;;;;;5.22;3.00;;;;;;;16.05;42.44;92355.47;5075494;28;20048;-79
2022/05/01 16:02:05;;;;;;;6.03;3.40;;;;;;;16.16;41.80;92361.91;5082079;28;20051;-77
2022/05/01 16:04:31;;;;;;;4.95;3.10;;;;;;;16.27;41.80;92357.00;5062878;28;20115;-78
2022/05/01 16:07:06;;;;;;;6.30;2.72;;;;;;;16.39;43.51;92359.69;5093955;28;20103;-79
2022/05/01 16:09:46;;;;;;;4.00;2.20;;;;;;;16.57;41.33;92364.81;5049933;28;20032;-78
2022/05/01 16:12:30;;;;;;;9.27;7.68;;;;;;;16.57;41.33;92360.31;5088640;28;20044;-77
2022/05/01 16:15:06;;;;;;;418.45;250.55;;;;;;;16.90;41.84;92361.41;5067188;28;20028;-77
2022/05/01 16:18:09;;;;;;;315.63;202.55;;;;;;;16.78;42.72;92362.91;5075357;28;20024;-77
2022/05/01 16:20:41;;;;;;;165.43;118.13;;;;;;;16.57;41.58;92357.66;5072669;28;20036;-77
2022/05/01 16:23:27;;;;;;;4.93;2.88;;;;;;;16.32;42.00;92362.06;5073796;28;20028;-77
2022/05/01 16:25:54;;;;;;;343.88;161.38;;;;;;;16.15;42.17;92362.25;5075107;28;20455;-78
2022/05/01 16:28:28;;;;;;;5.93;3.63;;;;;;;16.09;42.41;92358.25;5068877;28;20035;-77
2022/05/01 16:30:59;;;;;;;207.60;91.63;;;;;;;16.05;42.27;92359.97;5075874;28;20141;-77
2022/05/01 16:33:42;;;;;;;;;;;;;;;16.18;43.07;92353.66;5081010;28;20382;-77
2022/05/01 16:36:11;;;;;;;12.88;5.75;;;;;;;16.05;42.48;92360.75;5069262;28;19912;-77
2022/05/01 16:38:39;;;;;;;9.68;4.70;;;;;;;15.92;42.51;92352.00;5064290;28;20493;-80
2022/05/01 16:41:06;;;;;;;8.13;4.47;;;;;;;15.95;43.55;92354.00;5084331;28;20033;-80
2022/05/01 16:43:32;;;;;;;7.68;3.97;;;;;;;15.98;43.11;92360.50;5051306;28;20094;-77
2022/05/01 16:46:01;;;;;;;6.90;3.17;;;;;;;16.12;42.75;92362.88;5058324;28;20044;-79
2022/05/01 16:48:28;;;;;;;8.07;4.97;;;;;;;16.02;42.90;92367.44;5086745;28;20031;-79
2022/05/01 16:50:57;;;;;;;99.28;63.50;;;;;;;16.07;42.62;92363.84;5081167;28;20040;-77
2022/05/01 16:53:26;;;;;;;6.63;4.35;;;;;;;16.10;43.52;92370.34;5057602;28;20036;-77
2022/05/01 16:55:52;;;;;;;7.45;3.70;;;;;;;16.08;43.24;92367.28;5066411;28;20039;-82
2022/05/01 16:58:24;;;;;;;5.43;3.58;;;;;;;15.81;43.51;92375.34;5082633;28;20051;-82
2022/05/01 17:01:01;;;;;;;6.22;3.38;;;;;;;15.72;43.65;92368.59;5082930;28;20034;-79
2022/05/01 17:03:54;;;;;;;9.02;5.20;;;;;;;15.58;44.13;92363.50;5066858;28;20062;-78
2022/05/01 17:06:28;;;;;;;;;;;;;;;15.56;44.33;92368.34;5082631;28;20102;-78
2022/05/01 17:09:03;;;;;;;80.55;50.80;;;;;;;15.57;46.73;92365.38;5088708;28;19912;-78
2022/05/01 17:11:52;;;;;;;102.50;32.33;;;;;;;15.71;44.01;92362.53;5080269;28;20044;-77
2022/05/01 17:14:56;;;;;;;21.30;8.52;;;;;;;15.43;44.06;92366.72;5073843;28;20165;-78
2022/05/01 17:17:43;;;;;;;63.20;22.25;;;;;;;15.31;44.37;92367.38;5062218;28;20135;-77
2022/05/01 17:20:12;;;;;;;17.50;9.77;;;;;;;15.22;44.75;92377.19;5078810;28;20528;-77
2022/05/01 17:22:51;;;;;;;8.50;4.82;;;;;;;15.16;44.62;92380.00;5085348;28;20111;-77
2022/05/01 17:25:21;;;;;;;24.98;16.05;;;;;;;15.15;46.06;92381.13;5072945;28;20043;-78
2022/05/01 17:27:56;;;;;;;6.20;3.60;;;;;;;15.08;45.96;92380.03;5072881;28;20524;-78
2022/05/01 17:30:25;;;;;;;10.48;6.15;;;;;;;14.88;47.83;92386.78;5084475;28;20419;-78
2022/05/01 17:32:58;;;;;;;13.68;6.82;;;;;;;14.65;48.31;92386.97;5092776;28;20032;-78
2022/05/01 17:35:27;;;;;;;29.02;13.27;;;;;;;14.67;48.22;92387.44;5082092;28;20260;-78
2022/05/01 17:37:54;;;;;;;7.45;4.32;;;;;;;14.66;48.96;92391.19;5076049;28;20403;-77
2022/05/01 17:40:21;;;;;;;11.65;5.03;;;;;;;14.58;49.57;92397.22;5060448;28;20029;-78
2022/05/01 17:42:48;;;;;;;9.32;5.40;;;;;;;14.49;48.93;92401.69;5069434;28;20051;-78
2022/05/01 17:45:18;;;;;;;8.88;5.30;;;;;;;14.36;50.00;92400.78;5062421;28;20041;-76
2022/05/01 17:47:50;;;;;;;9.07;5.03;;;;;;;14.48;49.43;92398.31;5073479;28;20025;-76
2022/05/01 17:50:18;;;;;;;14.10;7.03;;;;;;;14.51;50.63;92408.19;5076232;28;20056;-78
2022/05/01 17:52:44;;;;;;;12.80;7.47;;;;;;;14.32;51.00;92405.91;5066721;28;20086;-77
2022/05/01 17:55:13;;;;;;;6.28;4.18;;;;;;;14.25;53.98;92410.88;5093454;28;20044;-79
2022/05/01 17:57:43;;;;;;;13.88;9.02;;;;;;;14.02;49.58;92417.34;5096756;28;20063;-76
2022/05/01 18:00:11;;;;;;;12.23;7.45;;;;;;;14.04;49.25;92407.28;5083287;28;20028;-76
2022/05/01 18:02:50;;;;;;;13.40;7.50;;;;;;;13.90;49.16;92420.59;5070095;28;20036;-75
2022/05/01 18:11:47;;;;;;;7.88;3.95;;;;;;;14.04;47.24;92431.75;5079835;28;20496;-76
2022/05/01 18:14:32;;;;;;;12.23;7.05;;;;;;;14.00;47.69;92433.44;5075129;28;20036;-75
2022/05/01 18:17:15;;;;;;;11.20;5.88;;;;;;;13.85;47.37;92432.03;5067071;28;20470;-79
2022/05/01 18:19:50;;;;;;;9.23;4.50;;;;;;;13.84;47.67;92438.38;5081998;28;20565;-76
2022/05/01 18:22:16;;;;;;;6.68;3.90;;;;;;;13.83;47.67;92433.44;5076156;28;20103;-76
2022/05/01 18:25:03;;;;;;;12.52;6.30;;;;;;;13.80;47.49;92442.69;5073725;28;20110;-77
2022/05/01 18:28:01;;;;;;;11.32;6.05;;;;;;;13.86;47.25;92451.22;5059127;28;20060;-77
2022/05/01 18:30:35;;;;;;;12.10;6.97;;;;;;;13.83;47.43;92446.59;5078492;28;20036;-77
2022/05/01 18:33:19;;;;;;;20.02;10.02;;;;;;;13.62;48.35;92451.63;5080094;28;20378;-78
2022/05/01 18:36:05;;;;;;;7.30;3.55;;;;;;;13.50;48.91;92460.09;5059740;28;20123;-77
2022/05/01 18:38:33;;;;;;;6.85;3.08;;;;;;;13.38;49.77;92459.91;5088964;28;20036;-83
2022/05/01 18:41:02;;;;;;;7.35;3.08;;;;;;;13.39;48.82;92464.84;5098471;28;20043;-78
2022/05/01 18:43:29;;;;;;;6.97;3.70;;;;;;;13.29;49.36;92475.63;5058817;28;20032;-77
2022/05/01 18:45:56;;;;;;;7.75;3.95;;;;;;;13.19;50.46;92475.84;5055956;28;20406;-77
2022/05/01 18:48:28;;;;;;;10.15;4.57;;;;;;;13.21;48.90;92474.47;5076067;28;20368;-77
2022/05/01 18:50:55;;;;;;;7.13;3.60;;;;;;;13.18;49.45;92480.34;5085595;28;20497;-79
2022/05/01 18:53:24;;;;;;;6.85;3.10;;;;;;;13.07;50.20;92477.19;5084444;28;20032;-77
2022/05/01 18:55:50;;;;;;;8.85;3.40;;;;;;;12.95;51.65;92484.06;5076243;28;20119;-78
2022/05/01 18:58:18;;;;;;;7.20;3.17;;;;;;;12.85;51.95;92483.25;5060111;28;20024;-77
2022/05/01 19:00:44;;;;;;;6.75;3.20;;;;;;;12.78;53.25;92492.63;5082588;28;20037;-76
2022/05/01 19:03:10;;;;;;;6.18;3.67;;;;;;;12.68;54.27;92488.41;5054834;28;20027;-77
2022/05/01 19:05:52;;;;;;;7.13;3.30;;;;;;;12.58;53.85;92499.13;5054865;28;20139;-77
2022/05/01 19:08:45;;;;;;;5.90;2.70;;;;;;;12.86;49.63;92497.16;5054571;28;20078;-76
2022/05/01 19:11:49;;;;;;;6.78;4.22;;;;;;;12.72;49.82;92502.47;5079287;28;20127;-76
2022/05/01 19:14:15;;;;;;;16.63;7.47;;;;;;;12.94;49.01;92506.19;5091615;28;20378;-79
2022/05/01 19:16:49;;;;;;;7.30;4.07;;;;;;;12.69;49.54;92506.47;5076868;28;20086;-76
2022/05/01 19:19:19;;;;;;;23.48;10.07;;;;;;;12.87;49.26;92512.63;5073779;28;20398;-76
2022/05/01 19:21:54;;;;;;;20.38;9.85;;;;;;;12.86;49.59;92520.81;5072342;28;20037;-77
2022/05/01 19:27:17;;;;;;;94.20;39.42;;;;;;;12.67;51.48;92526.22;5080421;28;20032;-77
2022/05/01 19:30:08;;;;;;;8.60;5.50;;;;;;;12.77;50.38;92527.88;5069435;28;20050;-76
2022/05/01 19:32:42;;;;;;;9.32;5.05;;;;;;;12.80;51.00;92532.50;5056992;28;20043;-75
2022/05/01 19:35:13;;;;;;;107.85;40.17;;;;;;;12.67;50.72;92540.13;5077487;28;20395;-76
2022/05/01 19:37:47;;;;;;;12.88;7.07;;;;;;;12.67;50.64;92548.00;5072090;28;20089;-76
2022/05/01 19:40:30;;;;;;;14.75;7.70;;;;;;;12.66;50.38;92551.72;5080365;28;20032;-76
2022/05/01 19:42:56;;;;;;;;;;;;;;;12.68;50.12;92551.44;5069601;28;20556;-76
2022/05/01 19:45:27;;;;;;;10.57;5.55;;;;;;;12.75;49.62;92558.91;5082808;28;19959;-77
2022/05/01 19:53:48;;;;;;;15.32;9.07;;;;;;;12.71;49.69;92556.84;5073676;28;20090;-77
2022/05/01 19:56:16;;;;;;;13.65;5.22;;;;;;;12.76;50.30;92563.06;5073522;28;20032;-77
2022/05/01 19:58:42;;;;;;;22.17;13.18;;;;;;;12.58;50.65;92562.91;5071365;28;20040;-76
2022/05/01 20:01:13;;;;;;;11.00;6.10;;;;;;;12.55;50.79;92557.50;5076051;28;20112;-77
2022/05/01 20:03:44;;;;;;;10.80;5.63;;;;;;;12.60;50.98;92563.41;5056122;28;20512;-77
2022/05/01 20:06:11;;;;;;;11.70;6.32;;;;;;;12.73;50.42;92569.69;5073293;28;20032;-77
2022/05/01 20:08:40;;;;;;;14.30;8.13;;;;;;;12.66;50.92;92570.09;5075217;28;20025;-77
2022/05/01 20:11:06;;;;;;;13.25;6.93;;;;;;;12.58;50.81;92560.28;5066416;28;20040;-77
2022/05/01 20:13:33;;;;;;;16.38;6.78;;;;;;;12.53;51.70;92570.91;5071980;28;20035;-77
2022/05/01 20:16:32;;;;;;;11.35;6.88;;;;;;;12.69;50.64;92573.97;5056822;28;20024;-77
2022/05/01 20:19:00;;;;;;;10.70;6.32;;;;;;;12.70;50.42;92568.44;5073580;28;20531;-77
2022/05/01 20:22:06;;;;;;;12.20;6.78;;;;;;;12.65;50.81;92576.44;5071517;28;20025;-77
2022/05/01 20:24:52;;;;;;;37.58;12.68;;;;;;;12.50;51.73;92572.28;5037951;28;20036;-77
2022/05/01 20:27:33;;;;;;;18.75;9.10;;;;;;;12.53;51.57;92586.66;5083262;28;20027;-76
2022/05/01 20:30:03;;;;;;;32.03;12.85;;;;;;;12.82;50.90;92588.16;5060492;28;20028;-77
2022/05/01 20:33:02;;;;;;;40.95;18.92;;;;;;;12.65;51.63;92589.56;5076856;28;20501;-77
2022/05/01 20:35:56;;;;;;;17.70;8.40;;;;;;;12.61;53.21;92598.31;5092950;28;20028;-76
2022/05/01 20:38:26;;;;;;;47.33;24.80;;;;;;;12.34;53.78;92597.31;5093263;28;20062;-77
2022/05/01 20:40:53;;;;;;;59.47;33.72;;;;;;;12.38;55.37;92592.22;5090957;28;20036;-77
2022/05/01 20:43:24;;;;;;;15.85;10.75;;;;;;;12.26;56.43;92596.13;5074867;28;20559;-77
2022/05/01 20:45:56;;;;;;;12.18;7.90;;;;;;;12.16;56.87;92596.34;5091217;28;20040;-76
2022/05/01 20:48:36;;;;;;;13.73;7.88;;;;;;;12.08;57.71;92589.91;5074702;28;20127;-77
2022/05/01 20:51:05;;;;;;;15.75;9.20;;;;;;;11.99;58.73;92590.91;5057966;28;20086;-77
2022/05/01 20:53:38;;;;;;;14.68;6.88;;;;;;;11.99;59.10;92593.53;5091356;28;20120;-77
2022/05/01 20:56:08;;;;;;;9.60;5.70;;;;;;;12.05;60.03;92592.38;5074314;28;20054;-76
2022/05/01 20:58:36;;;;;;;12.23;7.22;;;;;;;11.93;60.26;92594.69;5092242;28;20450;-77
2022/05/01 21:01:04;;;;;;;10.93;5.90;;;;;;;11.88;60.76;92595.56;5058670;28;20025;-76
2022/05/01 21:03:33;;;;;;;10.38;6.68;;;;;;;11.93;60.70;92589.44;5071972;28;20461;-76
2022/05/01 21:05:59;;;;;;;14.07;8.23;;;;;;;11.78;61.30;92593.88;5071895;28;20036;-77
2022/05/01 21:08:25;;;;;;;14.52;7.55;;;;;;;11.62;61.81;92595.22;5071928;28;20055;-76
2022/05/01 21:10:53;;;;;;;14.70;6.82;;;;;;;11.53;62.39;92592.50;5072280;28;20504;-77
2022/05/01 21:13:20;;;;;;;14.38;7.35;;;;;;;11.47;62.95;92588.38;5074919;28;20036;-77
2022/05/01 21:15:46;;;;;;;13.20;7.53;;;;;;;11.53;63.03;92591.69;5095631;28;20077;-77
2022/05/01 21:18:12;;;;;;;17.77;9.48;;;;;;;11.42;63.48;92589.25;5095998;28;20047;-76
2022/05/01 21:20:38;;;;;;;10.50;7.15;;;;;;;11.40;63.82;92588.75;5095013;28;20492;-77
2022/05/01 21:23:05;;;;;;;13.02;7.25;;;;;;;11.35;63.43;92588.06;5080709;28;20040;-77
2022/05/01 21:25:31;;;;;;;13.70;7.50;;;;;;;11.42;63.79;92597.13;5075821;28;20028;-76
2022/05/01 21:27:58;;;;;;;12.63;7.72;;;;;;;11.38;63.98;92590.88;5057928;28;20037;-77
2022/05/01 21:33:08;;;;;;;13.35;7.65;;;;;;;11.30;64.19;92593.38;5075680;28;20036;-77
2022/05/01 21:35:34;;;;;;;13.48;7.28;;;;;;;11.32;64.95;92597.28;5058358;28;20158;-77
2022/05/01 21:37:59;;;;;;;12.65;7.28;;;;;;;11.29;65.01;92603.09;5077086;28;20032;-77
2022/05/01 21:40:25;;;;;;;11.30;6.50;;;;;;;11.29;65.14;92603.09;5095115;28;20032;-76
2022/05/01 21:42:50;;;;;;;12.40;7.72;;;;;;;11.29;64.38;92600.47;5096353;28;20405;-77
2022/05/01 21:45:16;;;;;;;10.50;6.70;;;;;;;11.29;64.75;92595.25;5075168;28;20035;-77
2022/05/01 21:47:42;;;;;;;11.25;6.85;;;;;;;11.28;65.57;92600.75;5096121;28;20043;-77
2022/05/01 21:50:09;;;;;;;10.85;6.30;;;;;;;11.25;65.11;92602.88;5092982;28;20044;-77
2022/05/01 21:52:35;;;;;;;11.95;7.40;;;;;;;11.25;65.13;92597.66;5075542;28;20048;-77
2022/05/01 21:55:00;;;;;;;13.43;6.88;;;;;;;11.23;65.05;92597.16;5041476;28;20036;-77
2022/05/01 21:57:26;;;;;;;13.77;6.88;;;;;;;11.22;65.05;92602.69;5057653;28;20047;-76
2022/05/01 21:59:52;;;;;;;11.07;6.55;;;;;;;11.24;65.01;92596.09;5075547;28;20470;-77
2022/05/01 22:02:18;;;;;;;11.73;7.07;;;;;;;11.23;65.16;92591.13;5058145;28;20090;-77
2022/05/01 22:04:48;;;;;;;12.27;7.15;;;;;;;11.20;65.03;92594.34;5063375;28;20055;-77
2022/05/01 22:07:15;;;;;;;10.98;6.93;;;;;;;11.14;65.64;92590.25;5095735;28;20097;-77
2022/05/01 22:09:41;;;;;;;10.05;6.93;;;;;;;11.12;65.90;92587.91;5069459;28;20055;-77
2022/05/01 22:12:07;;;;;;;11.27;6.72;;;;;;;11.10;66.23;92589.25;5093967;28;20063;-77
2022/05/01 22:14:33;;;;;;;11.35;7.50;;;;;;;11.06;66.39;92593.53;5077272;28;20094;-77
2022/05/01 22:17:11;;;;;;;13.40;7.10;;;;;;;11.01;66.47;92581.25;5060864;28;20485;-77
2022/05/01 22:19:44;;;;;;;13.15;7.38;;;;;;;10.99;66.68;92583.41;5062708;28;20447;-77
2022/05/01 22:22:12;;;;;;;13.40;7.28;;;;;;;10.96;66.69;92582.13;5075333;28;20036;-76
2022/05/01 22:24:38;;;;;;;10.25;6.80;;;;;;;10.94;66.88;92580.84;5080237;28;20466;-76
2022/05/01 22:27:09;;;;;;;10.07;6.80;;;;;;;10.92;66.43;92581.16;5055791;28;20552;-76
2022/05/01 22:29:36;;;;;;;13.57;6.60;;;;;;;10.90;66.71;92572.81;5073383;28;20033;-77
2022/05/01 22:32:03;;;;;;;11.10;7.40;;;;;;;10.86;67.22;92577.06;5055413;28;20035;-76
2022/05/01 22:34:29;;;;;;;12.05;7.65;;;;;;;10.82;67.29;92573.44;5055530;28;20493;-76
2022/05/01 22:39:39;;;;;;;17.15;7.70;;;;;;;10.82;66.99;92583.91;5093343;28;20405;-76
2022/05/01 22:42:05;;;;;;;12.13;7.38;;;;;;;10.79;66.75;92574.03;5075091;28;20039;-76
2022/05/01 22:44:31;;;;;;;13.07;7.72;;;;;;;10.81;66.65;92580.53;5075284;28;20409;-76
2022/05/01 22:46:58;;;;;;;11.48;7.63;;;;;;;10.77;66.88;92574.28;5075186;28;20097;-76
2022/05/01 22:49:23;;;;;;;10.40;6.90;;;;;;;10.74;67.06;92580.09;5075155;28;20396;-77
2022/05/01 22:51:49;;;;;;;17.85;7.43;;;;;;;10.71;67.04;92572.03;5057398;28;20074;-76
2022/05/01 22:54:15;;;;;;;14.40;7.88;;;;;;;10.67;67.03;92582.28;5055042;28;20041;-77
2022/05/01 22:56:41;;;;;;;11.25;7.13;;;;;;;10.62;67.66;92580.53;5072853;28;20095;-76
2022/05/01 22:59:06;;;;;;;12.55;7.22;;;;;;;10.58;67.84;92582.16;5072843;28;20067;-76
2022/05/01 23:01:32;;;;;;;13.35;7.53;;;;;;;10.54;68.25;92578.56;5072879;28;20145;-76
2022/05/01 23:03:58;;;;;;;11.32;7.15;;;;;;;10.46;68.61;92576.56;5064400;28;20040;-76
2022/05/01 23:06:24;;;;;;;10.85;7.13;;;;;;;10.43;68.14;92571.13;5074972;28;20042;-76
2022/05/01 23:08:50;;;;;;;12.48;7.55;;;;;;;10.45;67.69;92571.59;5074820;28;20032;-76
2022/05/01 23:11:16;;;;;;;12.45;7.22;;;;;;;10.48;67.53;92569.22;5054145;28;20051;-76
2022/05/01 23:13:41;;;;;;;14.70;7.00;;;;;;;10.51;67.48;92568.63;5072473;28;20032;-76
2022/05/01 23:16:07;;;;;;;13.00;6.80;;;;;;;10.45;67.35;92564.56;5072666;28;20359;-76
2022/05/01 23:18:33;;;;;;;13.18;7.22;;;;;;;10.38;67.59;92564.09;5084887;28;20032;-76
2022/05/01 23:20:58;;;;;;;12.00;7.07;;;;;;;10.29;68.00;92558.75;5056844;28;20623;-77
2022/05/01 23:23:26;;;;;;;12.57;7.18;;;;;;;10.25;68.17;92564.78;5078258;28;20028;-76
2022/05/01 23:25:53;;;;;;;12.20;7.32;;;;;;;10.18;68.16;92565.13;5092504;28;20032;-76
2022/05/01 23:28:19;;;;;;;12.75;7.25;;;;;;;10.12;68.23;92555.78;5074434;28;20043;-76
2022/05/01 23:30:45;;;;;;;14.38;7.85;;;;;;;10.07;68.02;92558.47;5092300;28;20074;-76
2022/05/01 23:33:13;;;;;;;13.57;7.45;;;;;;;9.98;69.11;92561.72;5080258;28;20056;-76
2022/05/01 23:35:39;;;;;;;13.10;7.50;;;;;;;9.95;69.31;92562.28;5053391;28;20044;-76
2022/05/01 23:38:05;;;;;;;13.02;7.72;;;;;;;9.84;69.19;92555.59;5054169;28;20044;-76
2022/05/01 23:40:31;;;;;;;12.18;7.63;;;;;;;9.82;69.17;92546.47;5054275;28;20033;-76
2022/05/01 23:42:57;;;;;;;14.27;8.02;;;;;;;9.87;70.39;92554.25;5071936;28;20393;-76
2022/05/01 23:45:23;;;;;;;15.98;7.53;;;;;;;9.76;71.30;92559.59;5054063;28;20056;-76
2022/05/01 23:47:55;;;;;;;15.48;7.75;;;;;;;9.70;71.56;92555.47;5070531;28;20044;-76
2022/05/01 23:50:21;;;;;;;14.57;8.00;;;;;;;9.61;72.41;92561.59;5037050;28;20133;-76
2022/05/01 23:52:47;;;;;;;14.85;8.20;;;;;;;9.48;72.48;92553.38;5037170;28;20041;-76
2022/05/01 23:55:13;;;;;;;14.13;8.07;;;;;;;9.40;71.32;92551.34;5071641;28;20052;-76
2022/05/01 23:57:39;;;;;;;14.10;7.55;;;;;;;9.32;71.71;92557.97;5071741;28;20036;-76
